2022年9月26日

时间 代码 天气 温度 能见度 天花板 METAR/SPECI
3:00 上午
V
63 °F 9 mi 7.100 ft 290° 290° 3 kt METAR CZVL 260900Z AUTO 29003KT 9SM OVC071 17/09 A3012 RMK SLP199 DENSITY ALT 2800FT
2:00 上午
V
63 °F 9 mi 7.100 ft 270° 270° 7 kt METAR CZVL 260800Z AUTO 27007KT 9SM OVC071 17/09 A3012 RMK SLP200 DENSITY ALT 2900FT
1:00 上午
V
57 °F 9 mi 7.600 ft Var 000° 0 kt METAR CZVL 260700Z AUTO 00000KT 9SM OVC076 14/10 A3011 RMK SLP201 DENSITY ALT 2400FT
12:00 上午
V
57 °F 9 mi 7.600 ft Var 000° 0 kt METAR CZVL 260600Z AUTO 00000KT 9SM OVC076 14/10 A3010 RMK SLP200 DENSITY ALT 2500FT

2022年9月25日

时间 代码 天气 温度 能见度 天花板 METAR/SPECI
11:00 下午
V
59 °F 9 mi 8.100 ft 220° 220° 2 kt METAR CZVL 260500Z AUTO 22002KT 9SM OVC081 15/10 A3009 RMK SLP196 DENSITY ALT 2600FT
10:00 下午
V
59 °F 9 mi 9.100 ft 240° 240° 4 kt METAR CZVL 260400Z AUTO 24004KT 9SM OVC091 15/10 A3008 RMK SLP195 DENSITY ALT 2600FT
9:50 下午
V
59 °F 9 mi 9.400 ft 220° 220° 3 kt METAR CZVL 260350Z AUTO 22003KT 9SM FEW060 BKN094 BKN120 BKN150 15/09 A3007 RMK SLP191 DENSITY ALT 2600FT
9:35 下午
V
59 °F 9 mi 16.000 ft 240° 240° 3 kt METAR CZVL 260335Z AUTO 24003KT 9SM -RA FEW060 SCT110 SCT130 BKN160 15/08 A3007 RMK SLP190 DENSITY ALT 2600FT
9:00 下午
V
59 °F 9 mi 17.000 ft 250° 250° 2 kt METAR CZVL 260300Z AUTO 25002KT 9SM FEW130 SCT150 OVC170 15/08 A3006 RMK SLP193 DENSITY ALT 2600FT
8:00 下午
V
59 °F 9 mi 18.000 ft 300° 300° 2 kt METAR CZVL 260200Z AUTO 30002KT 9SM OVC180 15/08 A3006 RMK SLP191 DENSITY ALT 2700FT
7:00 下午
V
68 °F 9 mi 17.000 ft 270° 270° 3 kt METAR CZVL 260100Z AUTO 27003KT 9SM BKN170 20/07 A3006 RMK SLP193 DENSITY ALT 3200FT
6:00 下午
V
70 °F 9 mi - 270° 270° 6 kt METAR CZVL 260000Z AUTO 27006KT 9SM FEW160 SCT210 21/06 A3007 RMK SLP195 DENSITY ALT 3400FT
5:00 下午
V
72 °F 9 mi - 270° 270° 10 - 16 kt METAR CZVL 252300Z AUTO 27010G16KT 9SM FEW160 22/05 A3006 RMK SLP193 DENSITY ALT 3500FT
4:00 下午
V
72 °F 9 mi - 250° 250° 9 kt METAR CZVL 252200Z AUTO 25009KT 220V330 9SM CLR 22/04 A3008 RMK SLP197 DENSITY ALT 3500FT
3:00 下午
V
72 °F 9 mi - 230° 230° 8 kt METAR CZVL 252100Z AUTO 23008KT 190V270 9SM CLR 22/03 A3010 RMK SLP206 DENSITY ALT 3400FT
2:00 下午
V
70 °F 9 mi 16.000 ft 210° 210° 12 - 18 kt METAR CZVL 252000Z AUTO 21012G18KT 9SM BKN160 21/01 A3012 RMK SLP211 DENSITY ALT 3300FT
1:00 下午
V
68 °F 9 mi - 220° 220° 8 kt METAR CZVL 251900Z AUTO 22008KT 9SM CLR 20/03 A3014 RMK SLP218 DENSITY ALT 3200FT
12:00 下午
V
64 °F 9 mi - 200° 200° 9 kt METAR CZVL 251800Z AUTO 20009KT 9SM CLR 18/03 A3015 RMK SLP224 DENSITY ALT 3000FT
11:00 上午
V
61 °F 9 mi - 220° 220° 11 kt METAR CZVL 251700Z AUTO 22011KT 9SM CLR 16/04 A3017 RMK SLP232 DENSITY ALT 2600FT
10:00 上午
V
54 °F 9 mi - 210° 210° 5 kt METAR CZVL 251600Z AUTO 21005KT 9SM SCT200 12/05 A3017 RMK SLP233
9:00 上午
V
48 °F 9 mi - 150° 150° 3 kt METAR CZVL 251500Z AUTO 15003KT 130V210 9SM FEW150 SCT210 09/04 A3019 RMK SLP241
8:00 上午
V
48 °F 9 mi 17.000 ft 190° 190° 7 kt METAR CZVL 251400Z AUTO 19007KT 9SM BKN170 BKN210 09/04 A3017 RMK SLP235
7:00 上午
V
37 °F 9 mi 21.000 ft Var 000° 0 kt METAR CZVL 251300Z AUTO 00000KT 9SM OVC210 03/02 A3019 RMK SLP242
6:00 上午
V
34 °F 9 mi - 180° 180° 5 kt METAR CZVL 251200Z AUTO 18005KT 9SM SCT210 01/01 A3020 RMK SLP244
5:00 上午
V
36 °F 9 mi - Var 000° 0 kt METAR CZVL 251100Z AUTO 00000KT 9SM FEW210 02/01 A3022 RMK SLP249
4:00 上午
V
37 °F 9 mi - Var 000° 0 kt METAR CZVL 251000Z AUTO 00000KT 9SM SCT110 03/02 A3023 RMK SLP252
3:00 上午
V
37 °F 9 mi - Var Var 2 kt METAR CZVL 250900Z AUTO VRB02KT 9SM CLR 03/03 A3022 RMK SLP248
2:00 上午
V
39 °F 9 mi - Var 000° 0 kt METAR CZVL 250800Z AUTO 00000KT 9SM CLR 04/01 A3021 RMK SLP243
1:00 上午
V
41 °F 9 mi - Var Var 3 kt METAR CZVL 250700Z AUTO VRB03KT 9SM CLR 05/02 A3020 RMK SLP242
12:00 上午
V
41 °F 9 mi - Var 000° 0 kt METAR CZVL 250600Z AUTO 00000KT 9SM CLR 05/02 A3019 RMK SLP240

2022年9月24日

时间 代码 天气 温度 能见度 天花板 METAR/SPECI
11:00 下午
V
43 °F 9 mi - Var Var 2 kt METAR CZVL 250500Z AUTO VRB02KT 9SM CLR 06/03 A3019 RMK SLP238
10:00 下午
V
43 °F 9 mi - Var Var 2 kt METAR CZVL 250400Z AUTO VRB02KT 9SM CLR 06/02 A3018 RMK SLP236
9:00 下午
V
46 °F 9 mi - Var 000° 0 kt METAR CZVL 250300Z AUTO 00000KT 9SM CLR 08/03 A3015 RMK SLP226
8:00 下午
V
50 °F 9 mi - 220° 220° 2 kt METAR CZVL 250200Z AUTO 22002KT 9SM CLR 10/02 A3013 RMK PRESRR SLP217
7:00 下午
V
61 °F 9 mi - 310° 310° 3 kt METAR CZVL 250100Z AUTO 31003KT 9SM CLR 16/02 A3011 RMK SLP207 DENSITY ALT 2700FT
6:00 下午
V
64 °F 9 mi - 320° 320° 9 kt METAR CZVL 250000Z AUTO 32009KT 9SM CLR 18/01 A3010 RMK SLP204 DENSITY ALT 2900FT
5:00 下午
V
64 °F 9 mi - 320° 320° 12 - 18 kt METAR CZVL 242300Z AUTO 32012G18KT 9SM CLR 18/01 A3010 RMK SLP203 DENSITY ALT 3000FT
4:00 下午
V
64 °F 9 mi - 320° 320° 16 - 25 kt METAR CZVL 242200Z AUTO 32016G25KT 9SM CLR 18/01 A3010 RMK SLP201 DENSITY ALT 3000FT
3:00 下午
V
64 °F 9 mi - 280° 280° 14 - 21 kt METAR CZVL 242100Z AUTO 28014G21KT 9SM CLR 18/00 A3009 RMK SLP197 DENSITY ALT 3000FT
2:00 下午
V
64 °F 9 mi - 300° 300° 16 - 27 kt METAR CZVL 242000Z AUTO 30016G27KT 9SM CLR 18/01 A3008 RMK SLP193 DENSITY ALT 3000FT
1:00 下午
V
63 °F 9 mi - 300° 300° 16 - 27 kt METAR CZVL 241900Z AUTO 30016G27KT 9SM CLR 17/01 A3007 RMK SLP191 DENSITY ALT 2900FT
12:00 下午
V
61 °F 9 mi - 310° 310° 25 - 32 kt METAR CZVL 241800Z AUTO 31025G32KT 9SM CLR 16/00 A3005 RMK SLP184 DENSITY ALT 2800FT
11:00 上午
V
61 °F 9 mi - 300° 300° 22 - 32 kt METAR CZVL 241700Z AUTO 30022G32KT 9SM CLR 16/01 A3004 RMK SLP180 DENSITY ALT 2800FT
10:00 上午
V
59 °F 9 mi - 290° 290° 14 - 23 kt METAR CZVL 241600Z AUTO 29014G23KT 9SM CLR 15/02 A3002 RMK SLP176 DENSITY ALT 2700FT
9:00 上午
V
55 °F 9 mi - 280° 280° 12 - 20 kt METAR CZVL 241500Z AUTO 28012G20KT 9SM CLR 13/03 A3000 RMK SLP170 DENSITY ALT 2500FT
8:00 上午
V
54 °F 9 mi 11.000 ft 270° 270° 12 - 18 kt METAR CZVL 241400Z AUTO 27012G18KT 9SM BKN110 12/03 A2996 RMK SLP156 DENSITY ALT 2400FT
7:00 上午
V
52 °F 9 mi 10.000 ft 240° 240° 8 kt METAR CZVL 241300Z AUTO 24008KT 9SM OVC100 11/04 A2994 RMK SLP152 DENSITY ALT 2300FT
6:00 上午
V
50 °F 9 mi 10.000 ft 240° 240° 6 kt METAR CZVL 241200Z AUTO 24006KT 9SM OVC100 10/05 A2993 RMK SLP142
5:00 上午
V
46 °F 9 mi - 230° 230° 7 kt METAR CZVL 241100Z AUTO 23007KT 9SM FEW130 08/04 A2991 RMK SLP137
4:00 上午
V
46 °F 9 mi - 240° 240° 6 kt METAR CZVL 241000Z AUTO 24006KT 9SM CLR 08/04 A2989 RMK SLP131
3:00 上午
V
54 °F 9 mi 8.600 ft 260° 260° 3 kt METAR CZVL 240900Z AUTO 26003KT 9SM BKN086 BKN120 BKN140 12/04 A2989 RMK SLP127 DENSITY ALT 2500FT
较旧的数据

我们和第三方通过cookies跟踪您在我们网站上的上网行为。如果您继续,我们认为您同意我们的cookie政策。 了解更多